Results by/Résultats par Info:[email protected] Phone: (613)260-0994
  

                                         K-TOWN TRIATHLON

                                     Sunday August 5th, 2001
                              Confederation Park, Kingston, Ontario

                           Overall Team Results - Long Course Triathlon

  -----FINAL------ ----------------------- ------------------------ ----           2 km                      56.5 km                   15 km
                                           Category                       ---------SWIM---------    ----------BIKE--------    ---------RUN----------
    Pos      Time  Teamname                Plc/Total Category         #    Cat  Ovr  Time  /100m     Cat Ovr Time  km/hr      Cat  Ovr  Time    km
  ------  -------- ----------------------- ------------------------ ----  ----------------------    ----------------------    ----------------------
    1     2:41:17 Performance Zone          1/6   Men's Relay       631  1      1   26:08  1:19    1      1 1:17:26  43.8     2      2   57:43  3:51 
    2     3:10:13 Steroid Positive          2/6   Men's Relay       647  3      6   35:35  1:47    2      3 1:38:37  34.4     1      1   56:02  3:45 
    3     3:11:52 TNT, NH                   3/6   Men's Relay       630  2      3   27:38  1:23    3      4 1:39:38  34.0     3      5 1:04:38  4:19 
    4     3:22:58 Where's Louis?            1/12  Coed Relay        632  7     11   41:47  2:06    2      5 1:41:21  33.5     1      3   59:52  4:00 
    5     3:28:14 Team Brignell             2/12  Coed Relay        637  6     10   41:06  2:04    1      2 1:29:46  37.8     6     11 1:17:23  5:10 
    6     3:32:23 Jongey and the Argonaut   3/12  Coed Relay        649  8     13   43:09  2:10    4      7 1:47:24  31.6     2      4 1:01:51  4:08 
    7     3:33:16 Frontenac Children's Ai   4/12  Coed Relay        641  2      4   29:57  1:30    6      9 1:54:00  29.7     4      8 1:09:20  4:38 
    8     3:33:42 Empire Financial Group    5/12  Coed Relay        644  1      2   27:27  1:23    5      8 1:47:44  31.5     7     12 1:18:32  5:15 
    9     3:41:23 Walsh / Noonan / Dehait   6/12  Coed Relay        639  3      5   34:34  1:44    7     11 1:58:18  28.7     3      7 1:08:32  4:35 
   10     4:01:33 The Three Amigos          7/12  Coed Relay        633  5      9   39:53  2:00    8     13 2:05:38  27.0     5      9 1:16:03  5:05 
   11     4:03:33 Team PB                   8/12  Coed Relay        636  10    16   48:22  2:26    3      6 1:47:12  31.6     8     16 1:28:00  5:52 
   12     4:04:46 Team Bernier              4/6   Men's Relay       643  4     14   46:12  2:19    4     10 1:58:05  28.7     5     13 1:20:30  5:22 
   13     4:14:17 Team Legault              5/6   Men's Relay       650  6     21   59:24  2:59    5     15 2:08:33  26.4     4      6 1:06:21  4:26 
   14     4:15:16 Incyc                     1/3   Women's Relay     629  2     12   41:47  2:06    1     12 2:00:14  28.2     3     19 1:33:16  6:14 
   15     4:21:48 The Bardeckis             2/3   Women's Relay     638  1      7   35:41  1:48    3     20 2:28:48  22.8     1     10 1:17:20  5:10 
   16     4:24:02 Tri-ing not to die        9/12  Coed Relay        642  4      8   39:27  1:59    11    17 2:13:18  25.4     10    18 1:31:17  6:06 
   17     4:33:22 Loyalist Fitness and He  10/12  Coed Relay        634  12    19   55:55  2:48    9     14 2:06:47  26.7     9     17 1:30:40  6:03 
   18     4:36:00 Sputter, Wobble and Tri   3/3   Women's Relay     645  3     17   49:04  2:28    2     19 2:21:57  23.9     2     15 1:25:00  5:40 
   19     4:41:00 LeBaron/LeBaron/LeBaron  11/12  Coed Relay        635  11    18   53:47  2:42    10    16 2:12:48  25.5     11    20 1:34:26  6:18 
   20     4:41:41 The Weakest Link         12/12  Coed Relay        640  9     15   47:37  2:23    12    18 2:19:26  24.3     12    21 1:34:38  6:19 
   21     5:05:56 The Unfits                6/6   Men's Relay       646  5     20   58:19  2:55    6     21 2:46:57  20.3     6     14 1:20:41  5:23